Time;durP1;ratioP1;P1;durP2;ratioP2;P2;SDS_P1;SDS_P2;PMS_P1;PMS_P2;Temp;Humidity;BMP_temperature;BMP_pressure;BME280_temperature;BME280_humidity;BME280_pressure;Samples;Min_cycle;Max_cycle;Signal;HPM_P1;HPM_P2
2023/09/13 00:01:15;;;;;;;5.30;3.40;;;;;;;27.06;36.26;101001.96;102946;1294;61414;-82
2023/09/13 00:03:41;;;;;;;6.70;4.10;;;;;;;27.06;36.12;100997.41;102824;1297;61468;-83
2023/09/13 00:06:06;;;;;;;5.90;3.80;;;;;;;27.05;36.45;100997.13;102854;1294;61491;-83
2023/09/13 00:08:32;;;;;;;5.90;3.30;;;;;;;27.05;36.18;100997.64;102985;1295;61282;-83
2023/09/13 00:11:04;;;;;;;6.70;4.00;;;;;;;27.05;36.42;101000.55;102977;1295;61416;-83
2023/09/13 00:13:31;;;;;;;7.60;4.10;;;;;;;27.05;36.48;101004.14;102808;1294;65912;-82
2023/09/13 00:15:57;;;;;;;7.10;3.80;;;;;;;27.05;36.39;101001.27;102935;1299;61380;-83
2023/09/13 00:18:22;;;;;;;7.10;4.00;;;;;;;27.05;36.25;100995.34;102782;1300;62075;-83
2023/09/13 00:20:52;;;;;;;6.30;3.50;;;;;;;27.05;36.32;100999.27;102753;1300;61412;-83
2023/09/13 00:23:19;;;;;;;6.30;3.50;;;;;;;27.05;36.43;101000.72;102835;1299;65877;-82
2023/09/13 00:25:45;;;;;;;7.00;4.00;;;;;;;27.05;36.36;101002.01;102895;1299;61386;-82
2023/09/13 00:28:10;;;;;;;6.30;3.70;;;;;;;27.05;36.38;101004.00;102727;1294;61356;-82
2023/09/13 00:30:36;;;;;;;5.70;3.70;;;;;;;27.05;36.49;101007.95;102731;1295;61504;-82
2023/09/13 00:33:02;;;;;;;5.90;3.50;;;;;;;27.05;36.44;101007.42;102769;1300;61386;-83
2023/09/13 00:35:29;;;;;;;5.60;3.70;;;;;;;27.05;36.47;101006.02;102768;1295;61415;-83
2023/09/13 00:37:54;;;;;;;5.60;3.30;;;;;;;27.04;36.47;101002.23;102824;1294;61436;-82
2023/09/13 00:40:20;;;;;;;7.00;4.10;;;;;;;27.04;36.53;100997.19;102745;1296;61383;-83
2023/09/13 00:42:46;;;;;;;7.00;3.90;;;;;;;27.04;36.43;100997.24;102816;1294;61479;-83
2023/09/13 00:45:11;;;;;;;6.70;3.70;;;;;;;27.04;36.57;100996.88;102787;1300;61417;-83
2023/09/13 00:47:39;;;;;;;6.70;4.00;;;;;;;27.04;36.54;100993.80;102873;1300;62117;-83
2023/09/13 00:50:07;;;;;;;6.50;4.00;;;;;;;27.04;36.67;100995.96;102700;1295;61369;-83
2023/09/13 00:52:33;;;;;;;6.00;3.50;;;;;;;27.03;36.72;100991.51;102882;1296;63826;-83
2023/09/13 00:54:58;;;;;;;6.90;3.70;;;;;;;27.03;36.73;100995.30;102712;1294;62174;-83
2023/09/13 00:57:24;;;;;;;5.80;3.80;;;;;;;27.03;36.64;100992.96;102724;1294;61429;-83
2023/09/13 00:59:49;;;;;;;6.50;3.80;;;;;;;27.03;36.57;100989.95;102843;1294;61409;-83
2023/09/13 01:02:15;;;;;;;6.40;3.70;;;;;;;27.03;36.62;100990.09;102940;1295;61701;-83
2023/09/13 01:04:40;;;;;;;6.30;3.60;;;;;;;27.03;36.79;100988.42;103002;1294;64082;-83
2023/09/13 01:07:08;;;;;;;5.80;3.70;;;;;;;27.03;36.77;100987.91;102704;1295;61430;-83
2023/09/13 01:09:34;;;;;;;5.60;3.60;;;;;;;27.03;36.71;100989.73;102760;1294;61312;-83
2023/09/13 01:12:00;;;;;;;5.60;3.70;;;;;;;27.03;36.72;100984.69;102800;1294;61532;-83
2023/09/13 01:14:25;;;;;;;5.70;3.50;;;;;;;27.02;36.75;100982.38;102754;1300;61484;-83
2023/09/13 01:16:53;;;;;;;6.50;3.80;;;;;;;27.02;36.77;100985.81;102868;1297;61350;-83
2023/09/13 01:19:27;;;;;;;5.20;3.40;;;;;;;27.02;36.66;100990.89;102699;1295;61369;-83
2023/09/13 01:22:13;;;;;;;5.50;3.50;;;;;;;27.02;36.77;100989.98;102828;1300;61372;-83
2023/09/13 01:25:08;;;;;;;5.90;3.70;;;;;;;27.02;36.74;100991.29;102793;1295;63622;-83
2023/09/13 01:27:55;;;;;;;6.40;3.80;;;;;;;27.02;36.87;100991.68;102741;1295;65812;-83
2023/09/13 01:30:21;;;;;;;6.50;3.90;;;;;;;27.02;36.74;100989.48;102828;1294;61286;-83
2023/09/13 01:32:47;;;;;;;6.50;3.90;;;;;;;27.02;36.73;100989.48;102756;1295;61459;-83
2023/09/13 01:35:12;;;;;;;7.30;4.00;;;;;;;27.02;36.66;100985.86;102724;1295;61353;-83
2023/09/13 01:37:38;;;;;;;5.90;3.60;;;;;;;27.01;36.86;100988.30;102872;1294;61884;-82
2023/09/13 01:40:06;;;;;;;6.00;3.50;;;;;;;27.02;36.92;100988.27;102723;1295;61445;-83
2023/09/13 01:42:32;;;;;;;6.30;3.50;;;;;;;27.02;37.00;100991.14;102756;1294;61438;-83
2023/09/13 01:44:57;;;;;;;6.80;3.80;;;;;;;27.01;36.85;100988.46;102734;1294;61498;-82
2023/09/13 01:47:23;;;;;;;7.10;4.00;;;;;;;27.01;37.03;100986.64;102677;1294;61348;-82
2023/09/13 01:49:48;;;;;;;5.70;3.70;;;;;;;27.01;36.81;100985.27;102713;1294;61405;-82
2023/09/13 01:52:14;;;;;;;6.10;4.00;;;;;;;27.01;36.83;100985.78;102885;1294;61399;-82
2023/09/13 01:54:41;;;;;;;5.60;3.60;;;;;;;27.01;36.94;100981.42;102702;1295;61879;-82
2023/09/13 01:57:07;;;;;;;7.30;3.50;;;;;;;27.01;37.13;100978.91;102743;1294;61405;-82
2023/09/13 01:59:32;;;;;;;5.80;3.50;;;;;;;27.01;37.07;100976.77;102784;1295;61469;-83
2023/09/13 02:01:58;;;;;;;5.00;3.60;;;;;;;27.01;37.19;100980.20;102823;1294;61442;-83
2023/09/13 02:04:26;;;;;;;5.60;3.60;;;;;;;27.01;37.10;100979.86;102758;1295;61376;-83
2023/09/13 02:06:52;;;;;;;8.20;4.30;;;;;;;27.01;37.07;100985.27;102777;1295;61367;-83
2023/09/13 02:09:17;;;;;;;4.80;3.20;;;;;;;27.00;37.08;100985.13;102827;1294;61443;-81
2023/09/13 02:11:43;;;;;;;6.50;3.80;;;;;;;27.00;36.92;100985.86;102820;1295;61549;-81
2023/09/13 02:14:09;;;;;;;5.70;3.60;;;;;;;27.00;36.99;100985.88;102859;1298;61506;-81
2023/09/13 02:16:34;;;;;;;5.90;3.50;;;;;;;27.00;37.15;100984.56;102746;1295;61509;-82
2023/09/13 02:19:00;;;;;;;6.00;3.60;;;;;;;27.00;36.99;100982.45;102901;1299;61374;-83
2023/09/13 02:21:28;;;;;;;5.60;3.50;;;;;;;27.00;37.03;100986.98;102877;1299;63578;-83
2023/09/13 02:23:53;;;;;;;5.70;3.40;;;;;;;26.99;37.08;100988.63;102767;1294;62516;-82
2023/09/13 02:26:23;;;;;;;6.40;3.60;;;;;;;27.00;37.23;100986.95;102849;1294;62432;-82
2023/09/13 02:28:49;;;;;;;5.80;3.50;;;;;;;26.99;37.24;100983.59;102717;1294;61375;-83
2023/09/13 02:31:25;;;;;;;5.60;3.60;;;;;;;26.99;37.42;100979.23;102781;1295;61388;-82
2023/09/13 02:33:51;;;;;;;5.60;3.40;;;;;;;26.99;37.21;100981.66;102790;1294;65888;-83
2023/09/13 02:36:16;;;;;;;5.50;3.70;;;;;;;26.99;37.32;100984.85;102693;1299;62340;-82
2023/09/13 02:38:42;;;;;;;5.70;3.30;;;;;;;26.99;37.18;100984.89;102756;1300;61994;-82
2023/09/13 02:41:08;;;;;;;5.30;3.30;;;;;;;26.99;37.25;100985.09;103000;1295;61927;-82
2023/09/13 02:43:33;;;;;;;4.60;3.20;;;;;;;26.99;37.28;100981.81;102812;1296;61329;-82
2023/09/13 02:45:59;;;;;;;5.50;3.30;;;;;;;26.99;37.41;100987.23;102644;1294;64869;-81
2023/09/13 02:48:25;;;;;;;5.30;3.20;;;;;;;26.99;37.46;100987.61;102751;1295;61523;-82
2023/09/13 02:50:51;;;;;;;7.90;3.30;;;;;;;26.99;37.44;100981.65;102743;1294;61389;-82
2023/09/13 02:53:17;;;;;;;5.70;3.30;;;;;;;26.98;37.36;100977.88;102783;1300;61421;-82
2023/09/13 02:55:42;;;;;;;5.90;3.40;;;;;;;26.98;37.39;100974.84;102874;1298;61411;-81
2023/09/13 02:58:17;;;;;;;4.90;3.20;;;;;;;26.99;37.29;100974.44;102789;1294;61503;-81
2023/09/13 03:00:43;;;;;;;6.20;3.20;;;;;;;26.98;37.50;100978.65;102963;1294;61757;-82
2023/09/13 03:03:11;;;;;;;5.40;3.20;;;;;;;26.98;37.44;100977.58;102854;1295;61394;-82
2023/09/13 03:05:37;;;;;;;5.80;3.30;;;;;;;26.98;37.44;100981.58;102457;1298;491533;-84
2023/09/13 03:08:05;;;;;;;5.70;3.10;;;;;;;26.98;37.48;100982.82;102895;1294;62677;-82
2023/09/13 03:10:33;;;;;;;7.30;3.40;;;;;;;26.98;37.45;100987.90;102950;1294;61405;-83
2023/09/13 03:13:03;;;;;;;5.10;3.20;;;;;;;26.97;37.46;100985.45;102804;1294;63879;-83
2023/09/13 03:15:32;;;;;;;5.20;3.60;;;;;;;26.97;37.58;100988.13;102817;1298;61430;-82
2023/09/13 03:17:59;;;;;;;5.20;3.30;;;;;;;26.97;37.55;100994.42;102853;1294;61404;-81
2023/09/13 03:20:24;;;;;;;5.30;3.10;;;;;;;26.97;37.57;100995.19;102823;1294;61463;-81
2023/09/13 03:22:50;;;;;;;4.90;3.20;;;;;;;26.97;37.71;100996.10;102828;1295;61342;-82
2023/09/13 03:25:16;;;;;;;6.30;3.20;;;;;;;26.97;37.42;100997.55;102760;1300;62446;-81
2023/09/13 03:27:41;;;;;;;5.90;3.40;;;;;;;26.97;37.50;100998.27;103073;1294;61497;-82
2023/09/13 03:30:07;;;;;;;5.20;3.30;;;;;;;26.97;37.62;101001.17;102768;1294;61410;-81
2023/09/13 03:32:34;;;;;;;4.90;2.90;;;;;;;26.97;37.63;100999.36;102713;1298;61238;-81
2023/09/13 03:34:59;;;;;;;7.00;3.40;;;;;;;26.97;37.42;100998.83;102756;1294;63841;-82
2023/09/13 03:37:25;;;;;;;5.60;3.20;;;;;;;26.96;37.69;101003.58;102718;1300;61360;-82
2023/09/13 03:39:50;;;;;;;5.40;3.20;;;;;;;26.96;37.52;101003.42;102860;1294;61421;-81
2023/09/13 03:42:16;;;;;;;4.00;2.80;;;;;;;26.96;37.41;101009.20;102764;1294;61858;-81
2023/09/13 03:44:42;;;;;;;5.90;2.80;;;;;;;26.95;37.34;101013.02;102835;1299;61404;-82
2023/09/13 03:47:08;;;;;;;4.70;2.80;;;;;;;26.95;37.31;101011.83;102628;1303;63863;-81
2023/09/13 03:49:34;;;;;;;5.00;2.90;;;;;;;26.94;37.20;101014.56;103002;1294;65572;-82
2023/09/13 03:52:01;;;;;;;5.80;3.30;;;;;;;26.94;36.96;101011.75;102738;1300;61453;-81
2023/09/13 03:54:27;;;;;;;6.60;3.50;;;;;;;26.93;37.07;101010.71;102757;1300;61401;-81
2023/09/13 03:56:52;;;;;;;5.40;3.00;;;;;;;26.92;37.16;101008.46;102786;1295;61427;-82
2023/09/13 03:59:18;;;;;;;5.00;3.20;;;;;;;26.91;36.87;101014.47;102981;1296;61395;-83
2023/09/13 04:01:44;;;;;;;6.80;3.10;;;;;;;26.90;36.88;101017.45;102918;1300;61464;-83
2023/09/13 04:04:10;;;;;;;5.90;3.30;;;;;;;26.88;36.92;101015.81;103003;1294;61392;-82
2023/09/13 04:06:35;;;;;;;5.70;3.00;;;;;;;26.87;36.60;101018.13;103076;1295;61507;-83
2023/09/13 04:09:02;;;;;;;5.90;3.30;;;;;;;26.86;36.74;101021.83;102923;1296;63865;-83
2023/09/13 04:11:28;;;;;;;6.60;3.40;;;;;;;26.84;36.58;101017.89;102896;1300;61497;-83
2023/09/13 04:13:54;;;;;;;6.60;3.20;;;;;;;26.81;36.57;101022.25;102937;1294;61407;-83
2023/09/13 04:16:20;;;;;;;6.20;3.40;;;;;;;26.79;36.60;101016.67;102883;1294;61406;-84
2023/09/13 04:18:45;;;;;;;8.80;3.50;;;;;;;26.78;36.52;101017.92;102798;1295;61410;-83
2023/09/13 04:21:11;;;;;;;5.70;3.20;;;;;;;26.75;36.55;101015.92;102959;1294;61377;-83
2023/09/13 04:23:37;;;;;;;5.90;3.20;;;;;;;26.74;36.40;101016.43;103412;1294;61414;-82
2023/09/13 04:26:02;;;;;;;5.20;2.70;;;;;;;26.73;36.49;101021.94;103351;1296;61356;-83
2023/09/13 04:28:32;;;;;;;5.40;2.30;;;;;;;26.72;36.35;101020.04;103363;1294;61280;-84
2023/09/13 04:30:59;;;;;;;7.20;3.00;;;;;;;26.72;36.40;101018.46;103317;1294;63782;-83
2023/09/13 04:33:44;;;;;;;6.90;3.40;;;;;;;26.71;36.57;101015.06;103355;1294;64879;-83
2023/09/13 04:36:10;;;;;;;6.10;2.90;;;;;;;26.70;36.39;101012.23;103280;1294;61289;-82
2023/09/13 04:38:36;;;;;;;6.80;3.20;;;;;;;26.70;36.51;101012.80;103438;1295;61425;-82
2023/09/13 04:41:03;;;;;;;5.30;2.90;;;;;;;26.71;36.52;101012.92;103641;1294;61425;-83
2023/09/13 04:43:29;;;;;;;5.10;3.20;;;;;;;26.69;36.34;101013.25;103542;1294;62112;-82
2023/09/13 04:45:54;;;;;;;5.20;3.00;;;;;;;26.69;36.50;101016.30;103820;1295;61333;-83
2023/09/13 04:48:20;;;;;;;7.30;3.60;;;;;;;26.69;36.32;101012.73;103853;1294;60041;-83
2023/09/13 04:50:46;;;;;;;6.60;2.90;;;;;;;26.68;36.25;101011.36;103758;1293;61390;-83
2023/09/13 04:53:11;;;;;;;7.80;3.60;;;;;;;26.67;36.17;101014.16;103776;1294;63939;-84
2023/09/13 04:55:37;;;;;;;9.70;3.40;;;;;;;26.66;36.15;101013.35;104080;1293;61401;-82
2023/09/13 04:58:03;;;;;;;10.50;3.50;;;;;;;26.64;36.26;101010.27;104077;1294;61281;-83
2023/09/13 05:00:28;;;;;;;16.90;3.80;;;;;;;26.63;36.47;101012.57;104715;1294;61426;-83
2023/09/13 05:02:54;;;;;;;16.60;4.30;;;;;;;26.61;36.42;101016.67;104445;1294;61416;-82
2023/09/13 05:05:20;;;;;;;16.00;4.00;;;;;;;26.57;36.66;101015.94;104135;1300;61483;-82
2023/09/13 05:07:46;;;;;;;11.50;4.00;;;;;;;26.53;36.60;101016.48;104335;1294;67569;-83
2023/09/13 05:10:12;;;;;;;15.40;4.30;;;;;;;26.51;36.67;101013.96;103928;1294;61292;-82
2023/09/13 05:12:37;;;;;;;11.80;3.90;;;;;;;26.49;36.73;101014.14;104576;1294;61287;-82
2023/09/13 05:15:03;;;;;;;7.60;4.20;;;;;;;26.39;36.65;101016.52;104299;1293;61767;-81
2023/09/13 05:17:29;;;;;;;13.20;4.00;;;;;;;26.29;36.78;101016.35;104409;1294;61315;-83
2023/09/13 05:19:55;;;;;;;13.10;4.50;;;;;;;26.20;36.49;101012.09;104662;1294;61285;-82
2023/09/13 05:22:20;;;;;;;9.30;4.30;;;;;;;26.17;36.60;101013.25;104309;1294;61359;-83
2023/09/13 05:24:46;;;;;;;13.40;4.70;;;;;;;26.13;36.82;101014.38;104465;1294;61325;-83
2023/09/13 05:27:12;;;;;;;13.90;4.30;;;;;;;26.08;36.84;101012.98;104479;1294;62032;-83
2023/09/13 05:29:37;;;;;;;10.50;4.20;;;;;;;26.06;36.92;101010.13;104393;1294;62847;-83
2023/09/13 05:32:03;;;;;;;11.30;4.50;;;;;;;26.07;36.93;101013.39;104620;1294;60613;-83
2023/09/13 05:34:29;;;;;;;10.90;4.20;;;;;;;26.09;37.07;101010.92;104470;1294;61369;-83
2023/09/13 05:36:55;;;;;;;12.90;4.10;;;;;;;26.11;36.89;101011.06;104296;1294;61414;-83
2023/09/13 05:39:21;;;;;;;10.00;4.50;;;;;;;26.16;37.07;101008.45;104130;1294;64029;-83
2023/09/13 05:41:46;;;;;;;11.50;4.50;;;;;;;26.19;36.90;101008.81;104093;1294;61326;-83
2023/09/13 05:44:17;;;;;;;16.80;4.40;;;;;;;26.19;36.88;101010.95;104270;1294;61387;-84
2023/09/13 05:46:43;;;;;;;12.50;4.50;;;;;;;26.21;36.77;101014.30;104111;1294;61177;-82
2023/09/13 05:49:10;;;;;;;9.50;4.30;;;;;;;26.21;36.87;101014.91;104474;1294;64538;-84
2023/09/13 05:51:35;;;;;;;18.40;5.50;;;;;;;26.19;36.90;101016.90;104587;1294;61414;-84
2023/09/13 05:54:01;;;;;;;12.40;4.90;;;;;;;26.12;36.86;101014.23;104593;1294;61860;-82
2023/09/13 05:56:27;;;;;;;17.20;5.00;;;;;;;26.05;36.99;101015.09;104825;1294;61299;-84
2023/09/13 05:58:53;;;;;;;20.30;5.40;;;;;;;25.97;37.17;101015.39;104814;1294;61331;-83
2023/09/13 06:01:18;;;;;;;19.90;5.80;;;;;;;25.91;37.09;101014.59;104349;1294;61352;-84
2023/09/13 06:03:44;;;;;;;16.40;4.90;;;;;;;25.84;37.39;101018.88;104399;1294;66143;-82
2023/09/13 06:06:09;;;;;;;13.50;5.10;;;;;;;25.79;37.47;101018.61;104497;1297;61433;-83
2023/09/13 06:08:35;;;;;;;19.00;4.60;;;;;;;25.75;37.50;101019.27;104642;1294;61312;-83
2023/09/13 06:11:00;;;;;;;16.70;4.80;;;;;;;25.79;37.67;101020.23;104528;1294;61298;-83
2023/09/13 06:13:26;;;;;;;12.40;4.10;;;;;;;25.84;37.66;101017.63;104431;1294;61490;-83
2023/09/13 06:15:52;;;;;;;14.00;4.60;;;;;;;25.90;37.70;101019.60;104214;1294;59259;-83
2023/09/13 06:18:17;;;;;;;13.50;4.30;;;;;;;25.93;37.69;101019.14;104216;1294;61321;-82
2023/09/13 06:20:43;;;;;;;10.00;4.40;;;;;;;25.97;37.69;101017.22;104180;1294;61430;-84
2023/09/13 06:25:44;;;;;;;13.20;4.30;;;;;;;25.88;37.67;101021.91;104321;1294;66018;-82
2023/09/13 06:28:12;;;;;;;15.00;4.50;;;;;;;25.89;37.87;101027.61;103858;1297;61417;-82
2023/09/13 06:30:38;;;;;;;9.70;4.00;;;;;;;25.92;37.79;101024.29;103885;1297;61333;-82
2023/09/13 06:33:08;;;;;;;11.50;4.20;;;;;;;25.94;37.74;101028.43;104093;1296;61603;-82
2023/09/13 06:35:33;;;;;;;11.10;4.50;;;;;;;25.98;37.76;101032.45;103988;1297;65912;-82
2023/09/13 06:37:59;;;;;;;10.20;4.20;;;;;;;25.99;37.74;101031.23;103947;1297;61472;-82
2023/09/13 06:40:25;;;;;;;10.00;4.40;;;;;;;25.99;37.81;101035.25;103945;1297;61440;-84
2023/09/13 06:42:51;;;;;;;7.80;4.10;;;;;;;25.96;37.81;101040.50;104187;1297;61494;-83
2023/09/13 06:45:16;;;;;;;17.40;4.50;;;;;;;25.95;37.88;101040.77;104083;1297;61421;-84
2023/09/13 06:47:42;;;;;;;12.10;4.40;;;;;;;25.94;37.77;101038.85;104052;1297;61456;-83
2023/09/13 06:50:08;;;;;;;16.80;4.80;;;;;;;25.93;37.86;101043.15;103971;1297;61405;-82
2023/09/13 06:52:34;;;;;;;13.70;4.90;;;;;;;25.89;37.89;101043.42;103983;1299;61336;-82
2023/09/13 06:54:59;;;;;;;10.00;4.10;;;;;;;25.83;38.01;101043.50;103920;1301;61344;-81
2023/09/13 06:57:26;;;;;;;17.30;4.10;;;;;;;25.80;38.17;101047.52;104324;1299;59999;-83
2023/09/13 06:59:52;;;;;;;15.50;4.40;;;;;;;25.80;38.18;101047.50;104328;1294;61390;-81
2023/09/13 07:02:18;;;;;;;13.00;4.40;;;;;;;25.81;38.25;101047.02;104357;1297;61331;-81
2023/09/13 07:04:44;;;;;;;17.10;4.70;;;;;;;25.82;38.44;101043.40;104220;1302;61312;-83
2023/09/13 07:07:11;;;;;;;11.50;4.30;;;;;;;25.84;38.42;101046.77;104806;1296;61282;-83
2023/09/13 07:09:37;;;;;;;10.10;4.60;;;;;;;25.85;38.48;101045.45;104443;1297;65772;-82
2023/09/13 07:12:03;;;;;;;11.20;4.00;;;;;;;25.83;38.30;101045.44;104184;1297;59247;-82
2023/09/13 07:14:29;;;;;;;12.40;4.10;;;;;;;25.87;38.33;101047.08;104152;1294;61428;-82
2023/09/13 07:16:54;;;;;;;12.20;4.00;;;;;;;25.93;38.25;101045.04;103894;1296;61364;-81
2023/09/13 07:19:20;;;;;;;10.10;3.80;;;;;;;25.99;38.28;101045.13;104098;1296;61404;-81
2023/09/13 07:21:46;;;;;;;13.50;3.90;;;;;;;26.03;38.18;101042.63;103870;1296;61588;-82
2023/09/13 07:24:12;;;;;;;10.60;4.20;;;;;;;26.05;38.20;101038.29;104304;1294;61096;-81
2023/09/13 07:26:38;;;;;;;10.60;4.30;;;;;;;26.07;38.26;101038.64;103907;1296;61292;-82
2023/09/13 07:29:03;;;;;;;11.30;4.10;;;;;;;26.08;38.19;101039.63;103969;1294;61418;-82
2023/09/13 07:31:29;;;;;;;10.70;3.70;;;;;;;26.10;38.29;101039.66;104299;1295;61280;-82
2023/09/13 07:33:55;;;;;;;8.30;3.80;;;;;;;26.12;38.17;101038.80;104055;1297;61402;-82
2023/09/13 07:36:23;;;;;;;8.90;3.90;;;;;;;26.15;38.27;101039.78;103814;1297;61298;-83
2023/09/13 07:38:48;;;;;;;12.60;4.60;;;;;;;26.19;38.09;101041.23;103982;1299;61300;-82
2023/09/13 07:41:14;;;;;;;10.20;3.90;;;;;;;26.22;38.17;101041.66;103813;1295;61398;-82
2023/09/13 07:43:40;;;;;;;12.10;3.80;;;;;;;26.25;38.07;101045.23;103774;1296;61325;-83
2023/09/13 07:46:06;;;;;;;10.80;3.80;;;;;;;26.26;38.00;101039.50;104162;1294;61424;-82
2023/09/13 07:48:32;;;;;;;13.30;3.90;;;;;;;26.22;38.02;101040.29;104152;1296;61413;-81
2023/09/13 07:50:58;;;;;;;9.00;4.00;;;;;;;26.21;37.96;101036.55;104412;1294;61414;-83
2023/09/13 07:53:25;;;;;;;22.60;4.10;;;;;;;26.21;38.07;101036.67;104217;1295;61179;-82
2023/09/13 07:55:50;;;;;;;16.30;4.20;;;;;;;26.22;38.04;101035.56;104172;1297;60190;-82
2023/09/13 07:58:16;;;;;;;14.50;4.10;;;;;;;26.13;38.19;101031.09;104205;1297;61340;-81
2023/09/13 08:00:43;;;;;;;18.50;4.40;;;;;;;26.09;38.34;101030.94;104028;1295;61370;-83
2023/09/13 08:03:09;;;;;;;15.50;4.10;;;;;;;26.10;38.25;101032.62;104283;1296;63925;-82
2023/09/13 08:05:36;;;;;;;21.90;4.70;;;;;;;26.14;38.42;101031.73;103967;1294;61827;-81
2023/09/13 08:08:03;;;;;;;13.20;3.90;;;;;;;26.18;38.54;101032.98;103772;1296;61337;-81
2023/09/13 08:10:28;;;;;;;14.50;3.50;;;;;;;26.19;38.42;101037.40;103934;1296;62717;-81
2023/09/13 08:12:54;;;;;;;13.60;4.00;;;;;;;26.21;38.26;101038.75;104151;1295;61241;-82
2023/09/13 08:15:20;;;;;;;16.80;4.20;;;;;;;26.18;38.12;101033.77;104236;1297;61334;-81
2023/09/13 08:17:46;;;;;;;12.10;3.80;;;;;;;26.18;38.18;101037.16;104154;1296;61430;-81
2023/09/13 08:20:13;;;;;;;24.50;4.40;;;;;;;26.22;38.01;101035.33;104199;1296;61437;-82
2023/09/13 08:22:39;;;;;;;14.90;4.10;;;;;;;26.27;38.25;101033.09;104681;1296;61260;-81
2023/09/13 08:25:05;;;;;;;22.90;4.30;;;;;;;26.31;38.27;101029.32;104451;1296;59328;-83
2023/09/13 08:27:30;;;;;;;13.40;4.10;;;;;;;26.31;38.20;101029.33;104335;1296;61380;-81
2023/09/13 08:29:56;;;;;;;12.70;3.70;;;;;;;26.33;38.24;101027.91;104247;1294;61396;-81
2023/09/13 08:32:22;;;;;;;17.00;3.80;;;;;;;26.36;38.18;101027.25;104401;1294;61366;-81
2023/09/13 08:34:48;;;;;;;16.50;3.90;;;;;;;26.36;38.24;101028.37;104181;1295;61205;-82
2023/09/13 08:37:16;;;;;;;10.50;3.90;;;;;;;26.38;38.17;101028.66;104202;1296;61338;-82
2023/09/13 08:39:41;;;;;;;14.50;3.90;;;;;;;26.41;38.06;101029.52;104275;1297;59335;-82
2023/09/13 08:42:07;;;;;;;16.50;4.00;;;;;;;26.41;37.84;101028.26;104324;1296;59505;-82
2023/09/13 08:44:34;;;;;;;17.40;4.40;;;;;;;26.43;37.84;101026.84;104544;1294;61519;-82
2023/09/13 08:47:00;;;;;;;10.10;4.20;;;;;;;26.46;37.83;101027.63;104419;1294;59388;-84
2023/09/13 08:49:25;;;;;;;15.40;4.10;;;;;;;26.49;37.90;101024.42;104423;1296;59458;-82
2023/09/13 08:51:52;;;;;;;15.10;3.80;;;;;;;26.54;38.01;101024.20;104694;1296;61201;-82
2023/09/13 08:54:18;;;;;;;19.20;4.40;;;;;;;26.56;37.90;101018.63;104824;1297;60033;-83
2023/09/13 08:56:46;;;;;;;41.10;5.30;;;;;;;26.59;38.17;101015.27;104783;1297;63907;-84
2023/09/13 08:59:13;;;;;;;16.50;4.20;;;;;;;26.64;38.75;101011.50;104792;1294;65957;-82
2023/09/13 09:01:39;;;;;;;25.20;4.80;;;;;;;26.68;38.62;101012.27;104699;1296;59088;-80
2023/09/13 09:04:04;;;;;;;17.70;4.70;;;;;;;26.68;38.54;101010.80;104109;1296;59349;-81
2023/09/13 09:06:33;;;;;;;34.10;5.10;;;;;;;26.71;38.74;101009.28;104649;1297;59148;-82
2023/09/13 09:08:59;;;;;;;22.50;4.20;;;;;;;26.74;38.94;101008.80;104649;1296;66175;-82
2023/09/13 09:11:28;;;;;;;24.10;4.60;;;;;;;26.77;38.92;101006.08;104780;1295;59880;-81
2023/09/13 09:13:54;;;;;;;15.20;3.80;;;;;;;26.76;38.92;100999.41;104816;1297;61071;-82
2023/09/13 09:16:20;;;;;;;23.90;4.70;;;;;;;26.76;38.60;101004.65;104697;1294;59796;-81
2023/09/13 09:18:46;;;;;;;13.60;4.10;;;;;;;26.77;38.86;101008.02;104683;1297;59266;-82
2023/09/13 09:21:11;;;;;;;11.70;4.20;;;;;;;26.78;38.60;100999.63;104517;1297;60095;-82
2023/09/13 09:23:38;;;;;;;11.70;3.50;;;;;;;26.79;38.30;100993.80;104718;1296;59382;-82
2023/09/13 09:26:04;;;;;;;14.10;4.20;;;;;;;26.78;38.27;100996.54;104273;1296;61675;-81
2023/09/13 09:28:31;;;;;;;12.30;3.70;;;;;;;26.80;38.11;100994.27;104242;1299;61418;-81
2023/09/13 09:30:59;;;;;;;12.20;3.80;;;;;;;26.82;37.91;100993.52;104361;1296;59278;-82
2023/09/13 09:33:29;;;;;;;11.10;3.50;;;;;;;26.84;37.82;100991.87;104119;1297;61412;-81
2023/09/13 09:36:03;;;;;;;14.80;3.90;;;;;;;26.84;37.87;100989.84;104570;1301;63720;-82
2023/09/13 09:38:28;;;;;;;19.20;3.90;;;;;;;26.85;37.60;100988.31;103967;1297;65897;-82
2023/09/13 09:41:00;;;;;;;10.50;3.70;;;;;;;26.85;37.57;100985.39;103989;1297;61470;-82
2023/09/13 09:43:26;;;;;;;11.60;3.50;;;;;;;26.86;37.66;100979.36;103973;1297;61323;-81
2023/09/13 09:45:51;;;;;;;13.70;4.00;;;;;;;26.88;37.65;100979.35;103702;1296;61848;-82
2023/09/13 09:48:17;;;;;;;17.50;4.00;;;;;;;26.90;37.52;100979.40;104170;1298;61313;-81
2023/09/13 09:50:46;;;;;;;17.70;4.20;;;;;;;26.90;37.23;100973.73;104028;1296;61399;-82
2023/09/13 09:53:13;;;;;;;13.40;3.90;;;;;;;26.91;37.65;100971.16;104104;1295;61233;-82
2023/09/13 09:55:49;;;;;;;12.20;3.30;;;;;;;26.92;37.42;100970.91;105658;1296;64093;-82
2023/09/13 09:58:15;;;;;;;13.10;3.70;;;;;;;26.93;37.40;100971.91;105488;1297;65763;-82
2023/09/13 10:00:49;;;;;;;21.40;3.90;;;;;;;26.93;37.13;100968.45;103932;1297;61615;-80
2023/09/13 10:03:18;;;;;;;16.20;3.90;;;;;;;26.93;37.01;100972.92;103686;1297;61366;-80
2023/09/13 10:06:11;;;;;;;20.10;4.40;;;;;;;26.95;37.10;100969.16;103450;1297;65348;-81
2023/09/13 10:08:45;;;;;;;19.30;4.40;;;;;;;26.98;37.10;100963.51;104867;1300;65520;-82
2023/09/13 10:11:14;;;;;;;14.90;4.40;;;;;;;26.99;37.34;100957.60;104366;1296;58912;-81
2023/09/13 10:13:40;;;;;;;12.20;3.90;;;;;;;27.00;37.28;100956.10;104751;1294;61328;-83
2023/09/13 10:16:11;;;;;;;23.40;4.60;;;;;;;27.01;37.33;100953.79;104258;1297;59100;-82
2023/09/13 10:18:42;;;;;;;15.70;4.40;;;;;;;27.03;37.17;100955.81;104246;1296;65784;-82
2023/09/13 10:21:08;;;;;;;12.50;4.10;;;;;;;27.04;37.00;100951.36;104390;1296;61350;-82
2023/09/13 10:23:45;;;;;;;12.90;4.30;;;;;;;27.05;36.78;100946.39;104387;1296;61377;-82
2023/09/13 10:26:13;;;;;;;13.20;4.00;;;;;;;27.07;36.50;100946.36;103938;1295;63878;-82
2023/09/13 10:28:40;;;;;;;11.70;4.20;;;;;;;27.08;36.37;100946.38;103943;1299;65888;-82
2023/09/13 10:31:19;;;;;;;10.80;3.90;;;;;;;27.09;36.45;100943.98;103982;1297;61447;-82
2023/09/13 10:33:50;;;;;;;17.40;3.90;;;;;;;27.09;35.97;100941.41;103751;1296;61254;-82
2023/09/13 10:36:26;;;;;;;16.70;4.60;;;;;;;27.11;35.97;100943.64;104274;1302;63796;-82
2023/09/13 10:39:07;;;;;;;18.80;4.10;;;;;;;27.11;35.87;100940.59;104241;1296;66789;-82
2023/09/13 10:41:36;;;;;;;20.70;4.10;;;;;;;27.11;35.72;100942.05;103984;1297;61252;-82
2023/09/13 10:44:03;;;;;;;20.70;3.70;;;;;;;27.11;35.65;100941.34;103865;1300;61184;-82
2023/09/13 10:46:28;;;;;;;18.10;4.40;;;;;;;27.11;35.60;100937.69;103844;1297;61839;-82
2023/09/13 10:48:54;;;;;;;16.00;4.10;;;;;;;27.11;35.60;100934.79;103933;1296;61254;-82
2023/09/13 10:51:20;;;;;;;12.20;4.20;;;;;;;27.12;35.59;100932.17;103862;1296;61360;-82
2023/09/13 10:53:47;;;;;;;14.70;4.20;;;;;;;27.12;35.62;100928.91;104093;1296;61469;-82
2023/09/13 10:56:15;;;;;;;14.00;4.40;;;;;;;27.12;35.65;100922.77;103803;1296;61505;-82
2023/09/13 10:58:43;;;;;;;11.20;3.90;;;;;;;27.12;35.56;100920.05;104026;1296;61345;-82
2023/09/13 11:01:09;;;;;;;21.40;5.10;;;;;;;27.13;35.41;100919.63;104428;1297;59070;-81
2023/09/13 11:03:34;;;;;;;22.90;5.00;;;;;;;27.14;35.72;100922.61;104371;1296;61248;-80
2023/09/13 11:06:00;;;;;;;22.60;5.00;;;;;;;27.15;35.80;100921.07;104103;1296;62374;-83
2023/09/13 11:08:30;;;;;;;16.40;4.40;;;;;;;27.16;35.83;100923.44;104023;1300;61514;-82
2023/09/13 11:10:56;;;;;;;25.90;5.10;;;;;;;27.18;36.22;100918.04;104307;1296;60978;-82
2023/09/13 11:13:29;;;;;;;22.30;4.80;;;;;;;27.19;36.33;100917.98;104254;1296;59428;-81